createdAt,value
2019-04-14T00:01:54.427Z,79.97
2019-04-14T00:04:26.973Z,80.07
2019-04-14T00:06:59.006Z,80.29
2019-04-14T00:09:29.917Z,80.09
2019-04-14T00:12:03.017Z,79.78
2019-04-14T00:14:33.546Z,80.12
2019-04-14T00:17:04.590Z,79.69
2019-04-14T00:19:34.941Z,80.04
2019-04-14T00:22:05.448Z,80.51
2019-04-14T00:24:35.808Z,80.40
2019-04-14T00:27:06.375Z,80.41
2019-04-14T00:29:37.136Z,80.70
2019-04-14T00:32:09.560Z,80.26
2019-04-14T00:34:42.719Z,80.51
2019-04-14T00:37:20.680Z,80.72
2019-04-14T00:39:53.670Z,80.89
2019-04-14T00:42:29.804Z,80.54
2019-04-14T00:45:04.856Z,80.83
2019-04-14T00:47:51.712Z,81.13
2019-04-14T00:50:14.726Z,81.31
2019-04-14T00:52:45.829Z,81.63
2019-04-14T00:55:16.469Z,81.76
2019-04-14T00:57:46.945Z,81.78
2019-04-14T01:00:19.281Z,81.65
2019-04-14T01:02:51.495Z,81.86
2019-04-14T01:05:24.130Z,81.58
2019-04-14T01:07:54.543Z,81.04
2019-04-14T01:10:25.678Z,80.95
2019-04-14T01:12:56.122Z,81.02
2019-04-14T01:15:26.758Z,80.86
2019-04-14T01:17:57.239Z,81.35
2019-04-14T01:20:27.593Z,81.53
2019-04-14T01:22:58.038Z,81.75
2019-04-14T01:25:28.374Z,81.06
2019-04-14T01:27:58.770Z,81.72
2019-04-14T01:30:29.165Z,81.85
2019-04-14T01:33:01.015Z,82.13
2019-04-14T01:35:31.838Z,81.62
2019-04-14T01:38:02.204Z,82.02
2019-04-14T01:40:33.714Z,82.06
2019-04-14T01:43:04.182Z,82.16
2019-04-14T01:45:35.715Z,82.07
2019-04-14T01:48:06.318Z,81.84
2019-04-14T01:50:41.283Z,82.14
2019-04-14T01:53:16.062Z,82.21
2019-04-14T01:55:50.438Z,82.62
2019-04-14T01:58:25.311Z,82.39
2019-04-14T02:01:04.109Z,82.54
2019-04-14T02:03:34.750Z,82.28
2019-04-14T02:06:07.090Z,82.60
2019-04-14T02:11:39.823Z,82.41
2019-04-14T02:14:10.760Z,82.49
2019-04-14T02:16:47.175Z,82.53
2019-04-14T02:19:13.233Z,82.09
2019-04-14T02:21:43.880Z,82.66
2019-04-14T02:24:15.594Z,83.28
2019-04-14T02:26:47.965Z,82.78
2019-04-14T02:29:19.012Z,83.12
2019-04-14T02:32:17.559Z,83.37
2019-04-14T02:34:49.449Z,83.32
2019-04-14T02:37:24.175Z,83.07
2019-04-14T02:39:53.864Z,83.53
2019-04-14T02:42:36.514Z,83.33
2019-04-14T02:47:44.544Z,83.45
2019-04-14T02:50:05.397Z,83.49
2019-04-14T02:52:35.261Z,83.78
2019-04-14T02:55:05.245Z,84.13
2019-04-14T02:57:52.554Z,83.85
2019-04-14T03:00:19.474Z,83.91
2019-04-14T03:05:22.346Z,83.61
2019-04-14T03:13:00.666Z,83.60
2019-04-14T03:15:23.998Z,83.30
2019-04-14T03:18:23.962Z,83.69
2019-04-14T03:21:07.326Z,83.01
2019-04-14T03:23:46.754Z,83.93
2019-04-14T03:26:29.769Z,83.63
2019-04-14T03:28:59.009Z,83.51
2019-04-14T03:34:29.854Z,84.18
2019-04-14T03:39:33.467Z,84.07
2019-04-14T03:41:45.582Z,84.18
2019-04-14T03:44:25.790Z,83.86
2019-04-14T03:46:50.617Z,83.58
2019-04-14T03:49:26.906Z,83.45
2019-04-14T03:51:57.625Z,83.26
2019-04-14T03:54:22.728Z,82.96
2019-04-14T03:56:46.730Z,83.37
2019-04-14T03:59:19.474Z,83.61
2019-04-14T04:01:50.380Z,83.65
2019-04-14T04:04:21.010Z,83.88
2019-04-14T04:06:53.046Z,83.74
2019-04-14T04:09:25.715Z,83.50
2019-04-14T04:11:56.687Z,83.30
2019-04-14T04:14:27.188Z,83.41
2019-04-14T04:16:59.595Z,83.17
2019-04-14T04:19:33.808Z,83.02
2019-04-14T04:22:24.406Z,83.08
2019-04-14T04:24:56.671Z,83.76
2019-04-14T04:27:48.292Z,83.55
2019-04-14T04:30:36.264Z,83.76
2019-04-14T04:33:21.792Z,84.34
2019-04-14T04:35:57.265Z,84.33
2019-04-14T04:38:29.423Z,84.21
2019-04-14T04:40:59.949Z,84.57
2019-04-14T04:43:30.558Z,84.46
2019-04-14T04:46:01.007Z,84.35
2019-04-14T04:48:32.768Z,84.43
2019-04-14T04:51:05.024Z,84.79
2019-04-14T04:53:36.244Z,84.85
2019-04-14T04:56:08.002Z,84.71
2019-04-14T04:58:39.142Z,84.35
2019-04-14T05:01:09.982Z,84.42
2019-04-14T05:03:41.057Z,84.06
2019-04-14T05:06:30.885Z,84.25
2019-04-14T05:09:15.159Z,85.03
2019-04-14T05:12:04.459Z,84.13
2019-04-14T05:14:43.459Z,85.07
2019-04-14T05:17:16.886Z,84.44
2019-04-14T05:19:47.600Z,84.42
2019-04-14T05:22:19.358Z,84.56
2019-04-14T05:24:50.833Z,84.81
2019-04-14T05:27:21.467Z,83.83
2019-04-14T05:29:51.886Z,84.98
2019-04-14T05:32:22.505Z,84.50
2019-04-14T05:34:54.289Z,84.84
2019-04-14T05:37:24.895Z,84.01
2019-04-14T05:39:55.526Z,84.48
2019-04-14T05:42:27.505Z,84.60
2019-04-14T05:44:58.624Z,84.54
2019-04-14T05:47:30.430Z,83.96
2019-04-14T05:50:01.528Z,84.77
2019-04-14T05:52:33.963Z,84.66
2019-04-14T05:55:06.608Z,84.21
2019-04-14T05:57:37.285Z,84.42
2019-04-14T06:00:10.366Z,83.86
2019-04-14T06:02:42.017Z,83.72
2019-04-14T06:05:13.031Z,83.25
2019-04-14T06:07:44.005Z,82.78
2019-04-14T06:10:15.704Z,82.18
2019-04-14T06:12:46.214Z,82.55
2019-04-14T06:15:16.685Z,82.94
2019-04-14T06:17:47.109Z,82.75
2019-04-14T06:20:17.670Z,82.56
2019-04-14T06:22:48.163Z,81.80
2019-04-14T06:25:18.653Z,82.80
2019-04-14T06:27:49.385Z,82.48
2019-04-14T06:30:24.830Z,83.36
2019-04-14T06:32:56.688Z,82.99
2019-04-14T06:35:37.733Z,82.65
2019-04-14T06:38:10.245Z,82.79
2019-04-14T06:40:42.506Z,82.41
2019-04-14T06:43:13.238Z,82.38
2019-04-14T06:45:44.080Z,82.68
2019-04-14T06:48:14.809Z,82.06
2019-04-14T06:50:46.565Z,82.56
2019-04-14T06:53:18.504Z,82.49
2019-04-14T06:55:50.005Z,82.02
2019-04-14T06:58:20.814Z,82.20
2019-04-14T07:00:52.277Z,80.96
2019-04-14T07:03:22.893Z,81.53
2019-04-14T07:05:54.404Z,81.93
2019-04-14T07:08:25.148Z,82.39
2019-04-14T07:10:55.913Z,82.16
2019-04-14T07:13:26.442Z,82.69
2019-04-14T07:15:57.075Z,82.44
2019-04-14T07:18:29.087Z,82.34
2019-04-14T07:20:59.978Z,82.05
2019-04-14T07:23:30.711Z,82.09
2019-04-14T07:26:02.337Z,81.43
2019-04-14T07:28:38.290Z,81.62
2019-04-14T07:31:10.486Z,81.68
2019-04-14T07:33:57.705Z,81.47
2019-04-14T07:36:42.266Z,79.98
2019-04-14T07:39:15.521Z,81.21
2019-04-14T07:41:47.717Z,80.62
2019-04-14T07:44:24.882Z,81.19
2019-04-14T07:47:06.144Z,80.74
2019-04-14T07:49:43.165Z,81.00
2019-04-14T07:52:33.303Z,80.42
2019-04-14T07:55:09.008Z,79.95
2019-04-14T07:57:53.381Z,80.59
2019-04-14T08:00:31.305Z,79.38
2019-04-14T08:03:03.621Z,79.87
2019-04-14T08:05:38.907Z,79.17
2019-04-14T08:08:11.341Z,78.09
2019-04-14T08:10:41.867Z,78.68
2019-04-14T08:13:14.422Z,76.83
2019-04-14T08:15:44.972Z,78.26
2019-04-14T08:18:15.503Z,79.09
2019-04-14T08:20:46.034Z,79.21
2019-04-14T08:23:16.970Z,79.13
2019-04-14T08:25:47.701Z,79.33
2019-04-14T08:28:18.129Z,79.49
2019-04-14T08:30:48.861Z,79.55
2019-04-14T08:33:19.699Z,79.31
2019-04-14T08:35:50.327Z,78.60
2019-04-14T08:38:20.759Z,79.56
2019-04-14T08:40:51.177Z,79.43
2019-04-14T08:43:39.936Z,78.45
2019-04-14T08:46:18.351Z,79.03
2019-04-14T08:48:58.699Z,78.67
2019-04-14T08:51:30.678Z,77.96
2019-04-14T08:54:06.197Z,78.60
2019-04-14T08:56:44.425Z,78.46
2019-04-14T08:59:19.769Z,78.52
2019-04-14T09:01:55.212Z,77.60
2019-04-14T09:04:39.324Z,78.73
2019-04-14T09:07:26.579Z,79.25
2019-04-14T09:10:01.900Z,78.45
2019-04-14T09:12:37.160Z,79.42
2019-04-14T09:15:08.684Z,78.00
2019-04-14T09:17:39.831Z,78.37
2019-04-14T09:20:10.896Z,78.01
2019-04-14T09:22:41.426Z,78.50
2019-04-14T09:25:12.364Z,78.46
2019-04-14T09:27:43.099Z,77.45
2019-04-14T09:30:14.339Z,77.98
2019-04-14T09:32:44.725Z,77.69
2019-04-14T09:35:15.087Z,77.06
2019-04-14T09:37:46.312Z,77.59
2019-04-14T09:40:17.070Z,77.54
2019-04-14T09:42:48.001Z,77.83
2019-04-14T09:45:18.634Z,77.04
2019-04-14T09:47:49.367Z,77.24
2019-04-14T09:50:20.201Z,76.70
2019-04-14T09:52:51.347Z,76.26
2019-04-14T09:55:23.507Z,75.32
2019-04-14T09:57:55.297Z,76.32
2019-04-14T10:00:26.282Z,76.91
2019-04-14T10:02:57.465Z,75.37
2019-04-14T10:05:29.213Z,76.33
2019-04-14T10:07:59.738Z,76.87
2019-04-14T10:10:30.309Z,74.94
2019-04-14T10:13:01.002Z,76.25
2019-04-14T10:15:31.505Z,75.78
2019-04-14T10:18:02.117Z,75.45
2019-04-14T10:20:32.688Z,75.68
2019-04-14T10:23:03.524Z,74.72
2019-04-14T10:25:34.053Z,76.12
2019-04-14T10:28:04.992Z,75.56
2019-04-14T10:30:35.519Z,74.91
2019-04-14T10:33:06.152Z,74.78
2019-04-14T10:35:36.923Z,76.12
2019-04-14T10:38:07.724Z,75.82
2019-04-14T10:40:38.343Z,76.13
2019-04-14T10:43:08.828Z,75.55
2019-04-14T10:45:39.277Z,74.81
2019-04-14T10:48:09.822Z,74.04
2019-04-14T10:50:40.231Z,74.45
2019-04-14T10:53:10.941Z,74.86
2019-04-14T10:55:41.379Z,75.17
2019-04-14T10:58:13.213Z,74.35
2019-04-14T11:00:43.807Z,75.17
2019-04-14T11:03:14.443Z,74.57
2019-04-14T11:05:49.986Z,74.20
2019-04-14T11:08:24.054Z,75.47
2019-04-14T11:10:54.831Z,73.50
2019-04-14T11:13:25.354Z,74.12
2019-04-14T11:15:55.783Z,74.27
2019-04-14T11:18:26.309Z,74.15
2019-04-14T11:20:56.942Z,75.82
2019-04-14T11:23:27.667Z,75.35
2019-04-14T11:25:58.099Z,75.38
2019-04-14T11:28:30.206Z,74.90
2019-04-14T11:31:01.167Z,74.00
2019-04-14T11:33:33.646Z,74.41
2019-04-14T11:36:21.262Z,74.14
2019-04-14T11:38:53.597Z,75.38
2019-04-14T11:41:24.893Z,74.68
2019-04-14T11:43:55.666Z,74.16
2019-04-14T11:46:26.187Z,74.16
2019-04-14T11:48:56.712Z,74.37
2019-04-14T11:51:27.856Z,75.15
2019-04-14T11:53:58.589Z,74.54
2019-04-14T11:56:29.333Z,74.59
2019-04-14T11:59:01.165Z,74.65
2019-04-14T12:01:50.397Z,74.83
2019-04-14T12:04:37.774Z,73.95
2019-04-14T12:07:16.203Z,74.08
2019-04-14T12:09:49.378Z,73.90
2019-04-14T12:12:20.211Z,74.39
2019-04-14T12:14:51.355Z,73.73
2019-04-14T12:17:21.960Z,74.34
2019-04-14T12:19:52.616Z,74.50
2019-04-14T12:22:23.195Z,75.13
2019-04-14T12:24:53.572Z,74.54
2019-04-14T12:27:24.304Z,75.16
2019-04-14T12:29:55.038Z,74.91
2019-04-14T12:32:25.953Z,74.97
2019-04-14T12:34:56.521Z,74.29
2019-04-14T12:37:26.974Z,75.63
2019-04-14T12:39:58.906Z,75.86
2019-04-14T12:42:31.049Z,75.96
2019-04-14T12:45:20.434Z,75.34
2019-04-14T12:47:52.592Z,75.63
2019-04-14T12:50:24.968Z,75.10
2019-04-14T12:52:56.405Z,75.06
2019-04-14T12:55:27.251Z,75.48
2019-04-14T12:57:59.416Z,75.81
2019-04-14T13:00:46.770Z,75.71
2019-04-14T13:03:17.340Z,75.22
2019-04-14T13:05:48.116Z,74.99
2019-04-14T13:08:19.977Z,75.00
2019-04-14T13:10:50.778Z,74.88
2019-04-14T13:13:21.513Z,75.17
2019-04-14T13:15:52.078Z,74.96
2019-04-14T13:18:22.695Z,75.32
2019-04-14T13:20:53.325Z,75.28
2019-04-14T13:23:23.856Z,75.60
2019-04-14T13:25:54.606Z,74.90
2019-04-14T13:28:25.215Z,74.92
2019-04-14T13:30:55.947Z,75.59
2019-04-14T13:33:26.492Z,75.54
2019-04-14T13:35:57.072Z,75.54
2019-04-14T13:38:27.531Z,75.26
2019-04-14T13:40:58.472Z,75.57
2019-04-14T13:43:29.281Z,75.69
2019-04-14T13:45:59.975Z,75.56
2019-04-14T13:48:30.641Z,75.58
2019-04-14T13:51:01.101Z,75.72
2019-04-14T13:53:33.349Z,75.76
2019-04-14T13:56:04.008Z,75.87
2019-04-14T13:58:37.959Z,76.01
2019-04-14T14:01:08.333Z,75.60
2019-04-14T14:03:38.952Z,75.63
2019-04-14T14:06:09.801Z,75.62
2019-04-14T14:08:40.225Z,75.42
2019-04-14T14:11:14.302Z,75.27
2019-04-14T14:13:50.604Z,75.33
2019-04-14T14:16:26.144Z,75.71
2019-04-14T14:18:58.356Z,75.66
2019-04-14T14:21:33.863Z,75.85
2019-04-14T14:24:22.613Z,75.70
2019-04-14T14:26:54.890Z,75.75
2019-04-14T14:29:25.414Z,75.75
2019-04-14T14:31:57.215Z,75.81
2019-04-14T14:34:28.485Z,75.49
2019-04-14T14:36:59.359Z,75.36
2019-04-14T14:39:30.808Z,75.53
2019-04-14T14:42:01.739Z,75.13
2019-04-14T14:44:36.519Z,75.24
2019-04-14T14:47:21.659Z,75.48
2019-04-14T14:49:54.733Z,75.46
2019-04-14T14:52:25.665Z,75.39
2019-04-14T14:54:56.295Z,75.54
2019-04-14T14:57:27.133Z,75.50
2019-04-14T14:59:59.708Z,75.32
2019-04-14T15:02:31.030Z,75.70
2019-04-14T15:05:01.661Z,75.80
2019-04-14T15:07:32.203Z,75.82
2019-04-14T15:10:02.721Z,76.14
2019-04-14T15:12:33.375Z,76.10
2019-04-14T15:15:04.821Z,75.88
2019-04-14T15:17:35.351Z,75.99
2019-04-14T15:20:06.184Z,76.11
2019-04-14T15:22:36.793Z,75.83
2019-04-14T15:25:07.839Z,75.95
2019-04-14T15:27:38.388Z,75.60
2019-04-14T15:30:11.082Z,75.94
2019-04-14T15:32:41.773Z,75.70
2019-04-14T15:35:12.481Z,75.84
2019-04-14T15:37:43.169Z,75.75
2019-04-14T15:40:13.978Z,75.80
2019-04-14T15:42:45.550Z,76.09
2019-04-14T15:45:16.078Z,76.26
2019-04-14T15:47:46.811Z,76.50
2019-04-14T15:50:19.080Z,76.79
2019-04-14T15:52:50.053Z,76.85
2019-04-14T15:55:20.959Z,76.86
2019-04-14T15:58:05.414Z,76.80
2019-04-14T16:00:37.784Z,76.53
2019-04-14T16:03:10.466Z,76.66
2019-04-14T16:05:42.844Z,76.62
2019-04-14T16:08:15.102Z,76.97
2019-04-14T16:10:47.276Z,76.71
2019-04-14T16:13:25.069Z,76.52
2019-04-14T16:15:58.934Z,76.69
2019-04-14T16:18:47.834Z,76.62
2019-04-14T16:21:18.773Z,76.52
2019-04-14T16:23:51.311Z,76.75
2019-04-14T16:26:23.517Z,76.56
2019-04-14T16:28:55.996Z,76.85
2019-04-14T16:31:44.902Z,76.84
2019-04-14T16:34:17.125Z,77.03
2019-04-14T16:36:49.386Z,77.14
2019-04-14T16:39:20.425Z,77.16
2019-04-14T16:41:51.027Z,76.98
2019-04-14T16:44:21.449Z,77.27
2019-04-14T16:46:53.261Z,77.04
2019-04-14T16:49:25.112Z,77.00
2019-04-14T16:51:59.621Z,76.95
2019-04-14T16:54:35.472Z,77.04
2019-04-14T16:57:10.717Z,76.92
2019-04-14T16:59:41.860Z,76.84
2019-04-14T17:02:12.694Z,76.85
2019-04-14T17:04:43.324Z,76.82
2019-04-14T17:07:14.161Z,76.82
2019-04-14T17:09:48.262Z,76.98
2019-04-14T17:12:19.929Z,77.18
2019-04-14T17:15:13.046Z,77.03
2019-04-14T17:17:45.455Z,76.97
2019-04-14T17:20:21.213Z,76.89
2019-04-14T17:22:59.619Z,77.24
2019-04-14T17:25:38.540Z,76.94
2019-04-14T17:28:16.957Z,77.04
2019-04-14T17:30:49.433Z,76.82
2019-04-14T17:33:28.051Z,77.03
2019-04-14T17:36:00.423Z,77.23
2019-04-14T17:38:43.220Z,77.21
2019-04-14T17:41:21.958Z,77.23
2019-04-14T17:43:54.336Z,77.17
2019-04-14T17:46:29.342Z,77.65
2019-04-14T17:49:01.942Z,77.72
2019-04-14T17:51:35.133Z,77.41
2019-04-14T17:54:07.738Z,77.61
2019-04-14T17:56:48.886Z,78.11
2019-04-14T17:59:30.476Z,78.31
2019-04-14T18:02:02.939Z,78.19
2019-04-14T18:04:50.067Z,78.27
2019-04-14T18:07:22.331Z,78.44
2019-04-14T18:10:10.581Z,78.56
2019-04-14T18:12:46.326Z,78.66
2019-04-14T18:15:18.505Z,78.66
2019-04-14T18:18:01.412Z,78.92
2019-04-14T18:20:33.886Z,78.89
2019-04-14T18:23:04.929Z,79.15
2019-04-14T18:25:35.570Z,79.09
2019-04-14T18:28:10.595Z,79.01
2019-04-14T18:30:43.583Z,79.40
2019-04-14T18:33:32.567Z,79.60
2019-04-14T18:36:05.013Z,79.73
2019-04-14T18:38:42.951Z,80.04
2019-04-14T18:41:25.632Z,80.09
2019-04-14T18:44:14.900Z,79.96
2019-04-14T18:47:03.922Z,80.27
2019-04-14T18:49:50.857Z,80.33
2019-04-14T18:52:23.550Z,80.55
2019-04-14T18:54:56.000Z,80.86
2019-04-14T18:57:28.296Z,80.59
2019-04-14T19:00:03.228Z,80.92
2019-04-14T19:02:35.778Z,81.66
2019-04-14T19:05:06.534Z,81.67
2019-04-14T19:07:39.418Z,82.18
2019-04-14T19:10:10.225Z,82.03
2019-04-14T19:12:43.243Z,82.54
2019-04-14T19:15:27.695Z,82.60
2019-04-14T19:18:00.066Z,82.72
2019-04-14T19:20:30.696Z,82.75
2019-04-14T19:23:01.349Z,82.80
2019-04-14T19:25:31.957Z,83.09
2019-04-14T19:28:04.232Z,83.20
2019-04-14T19:30:34.739Z,83.49
2019-04-14T19:33:05.593Z,83.76
2019-04-14T19:35:36.090Z,83.96
2019-04-14T19:38:06.956Z,84.50
2019-04-14T19:40:37.791Z,84.55
2019-04-14T19:43:08.592Z,85.01
2019-04-14T19:45:39.025Z,84.79
2019-04-14T19:48:09.784Z,84.69
2019-04-14T19:50:40.623Z,84.73
2019-04-14T19:53:11.660Z,84.96
2019-04-14T19:55:42.292Z,85.09
2019-04-14T19:58:13.028Z,85.67
2019-04-14T20:00:43.765Z,85.28
2019-04-14T20:03:14.908Z,85.35
2019-04-14T20:05:45.432Z,85.15
2019-04-14T20:08:15.961Z,85.23
2019-04-14T20:10:46.589Z,85.68
2019-04-14T20:13:17.321Z,86.19
2019-04-14T20:15:58.910Z,86.46
2019-04-14T20:18:34.357Z,86.85
2019-04-14T20:21:22.814Z,87.78
2019-04-14T20:23:57.909Z,87.70
2019-04-14T20:26:46.292Z,88.00
2019-04-14T20:29:18.761Z,87.50
2019-04-14T20:31:52.155Z,87.77
2019-04-14T20:34:23.929Z,88.16
2019-04-14T20:36:54.540Z,88.15
2019-04-14T20:39:25.380Z,88.56
2019-04-14T20:41:56.116Z,88.99
2019-04-14T20:44:26.846Z,89.43
2019-04-14T20:46:57.549Z,88.89
2019-04-14T20:49:28.412Z,88.92
2019-04-14T20:51:59.736Z,89.08
2019-04-14T20:54:30.870Z,89.30
2019-04-14T20:57:01.329Z,89.07
2019-04-14T20:59:33.093Z,89.70
2019-04-14T21:02:23.089Z,89.38
2019-04-14T21:05:07.609Z,89.43
2019-04-14T21:07:55.974Z,90.07
2019-04-14T21:10:34.283Z,90.46
2019-04-14T21:13:12.871Z,90.21
2019-04-14T21:15:48.650Z,90.50
2019-04-14T21:18:23.480Z,90.99
2019-04-14T21:20:55.871Z,91.15
2019-04-14T21:23:28.229Z,91.15
2019-04-14T21:26:15.854Z,91.16
2019-04-14T21:28:55.355Z,91.62
2019-04-14T21:31:39.367Z,100.00
2019-04-14T21:34:11.612Z,96.22
2019-04-14T21:36:43.978Z,95.92
2019-04-14T21:39:16.351Z,95.35
2019-04-14T21:41:48.616Z,95.92
2019-04-14T21:44:19.221Z,95.65
2019-04-14T21:46:50.191Z,95.75
2019-04-14T21:49:20.921Z,96.40
2019-04-14T21:52:05.484Z,96.28
2019-04-14T21:54:36.392Z,95.93
2019-04-14T21:57:13.475Z,96.05
2019-04-14T22:00:02.666Z,95.87
2019-04-14T22:02:53.473Z,96.14
2019-04-14T22:05:42.740Z,96.19
2019-04-14T22:08:25.420Z,95.57
2019-04-14T22:10:58.945Z,94.95
2019-04-14T22:13:30.093Z,94.92
2019-04-14T22:16:00.617Z,94.56
2019-04-14T22:18:31.348Z,94.94
2019-04-14T22:21:02.081Z,95.14
2019-04-14T22:23:32.814Z,94.84
2019-04-14T22:26:03.343Z,94.62
2019-04-14T22:28:34.180Z,94.64
2019-04-14T22:31:04.816Z,94.41
2019-04-14T22:33:35.542Z,94.44
2019-04-14T22:36:06.279Z,94.60
2019-04-14T22:38:38.509Z,94.72
2019-04-14T22:41:09.178Z,94.65
2019-04-14T22:43:41.091Z,94.54
2019-04-14T22:46:11.870Z,94.83
2019-04-14T22:48:42.783Z,94.57
2019-04-14T22:51:14.465Z,93.98
2019-04-14T22:53:45.481Z,93.81
2019-04-14T22:56:15.933Z,94.19
2019-04-14T22:58:46.360Z,94.09
2019-04-14T23:01:19.550Z,93.36
2019-04-14T23:04:03.253Z,93.49
2019-04-14T23:06:51.943Z,93.77
2019-04-14T23:09:29.840Z,93.72
2019-04-14T23:12:02.627Z,93.76
2019-04-14T23:14:36.340Z,93.92
2019-04-14T23:17:12.784Z,93.76
2019-04-14T23:19:48.748Z,93.79
2019-04-14T23:22:32.998Z,93.51
2019-04-14T23:25:04.081Z,93.51
2019-04-14T23:27:36.147Z,93.47
2019-04-14T23:30:07.010Z,93.68
2019-04-14T23:32:37.569Z,93.50
2019-04-14T23:35:09.027Z,93.71
2019-04-14T23:37:40.902Z,93.29
2019-04-14T23:40:11.714Z,93.60
2019-04-14T23:42:42.345Z,94.18
2019-04-14T23:45:13.078Z,94.24
2019-04-14T23:47:43.505Z,94.06
2019-04-14T23:50:13.930Z,93.29
2019-04-14T23:52:44.835Z,93.11
2019-04-14T23:55:15.501Z,93.69
2019-04-14T23:57:46.133Z,94.83
